sensor_id;sensor_type;location;lat;lon;timestamp;temperature;humidity
13389;DHT22;6764;53.250;10.410;2023-07-02T00:02:07;16.40;99.90
13389;DHT22;6764;53.250;10.410;2023-07-02T00:04:33;16.40;99.90
13389;DHT22;6764;53.250;10.410;2023-07-02T00:06:59;16.40;99.90
13389;DHT22;6764;53.250;10.410;2023-07-02T00:09:24;16.30;99.90
13389;DHT22;6764;53.250;10.410;2023-07-02T00:11:50;16.30;99.90
13389;DHT22;6764;53.250;10.410;2023-07-02T00:14:16;16.30;99.90
13389;DHT22;6764;53.250;10.410;2023-07-02T00:16:44;16.30;99.90
13389;DHT22;6764;53.250;10.410;2023-07-02T00:19:14;16.20;99.90
13389;DHT22;6764;53.250;10.410;2023-07-02T00:21:40;16.20;99.90
13389;DHT22;6764;53.250;10.410;2023-07-02T00:24:06;16.20;99.90
13389;DHT22;6764;53.250;10.410;2023-07-02T00:26:35;16.30;99.90
13389;DHT22;6764;53.250;10.410;2023-07-02T00:29:00;16.30;99.90
13389;DHT22;6764;53.250;10.410;2023-07-02T00:31:26;16.30;99.90
13389;DHT22;6764;53.250;10.410;2023-07-02T00:33:52;16.20;99.90
13389;DHT22;6764;53.250;10.410;2023-07-02T00:36:17;16.20;99.90
13389;DHT22;6764;53.250;10.410;2023-07-02T00:38:48;16.20;99.90
13389;DHT22;6764;53.250;10.410;2023-07-02T00:41:15;16.20;99.90
13389;DHT22;6764;53.250;10.410;2023-07-02T00:43:40;16.10;99.90
13389;DHT22;6764;53.250;10.410;2023-07-02T00:46:19;16.10;99.90
13389;DHT22;6764;53.250;10.410;2023-07-02T00:48:49;16.00;99.90
13389;DHT22;6764;53.250;10.410;2023-07-02T00:51:17;16.00;99.90
13389;DHT22;6764;53.250;10.410;2023-07-02T00:53:46;15.90;99.90
13389;DHT22;6764;53.250;10.410;2023-07-02T00:56:12;15.90;99.90
13389;DHT22;6764;53.250;10.410;2023-07-02T00:58:40;15.90;99.90
13389;DHT22;6764;53.250;10.410;2023-07-02T01:01:15;15.90;99.90
13389;DHT22;6764;53.250;10.410;2023-07-02T01:06:22;15.90;99.90
13389;DHT22;6764;53.250;10.410;2023-07-02T01:08:51;15.90;99.90
13389;DHT22;6764;53.250;10.410;2023-07-02T01:11:17;15.90;99.90
13389;DHT22;6764;53.250;10.410;2023-07-02T01:13:43;16.00;99.90
13389;DHT22;6764;53.250;10.410;2023-07-02T01:16:10;16.00;99.90
13389;DHT22;6764;53.250;10.410;2023-07-02T01:18:36;16.00;99.90
13389;DHT22;6764;53.250;10.410;2023-07-02T01:21:05;16.00;99.90
13389;DHT22;6764;53.250;10.410;2023-07-02T01:23:34;16.10;99.90
13389;DHT22;6764;53.250;10.410;2023-07-02T01:25:59;16.10;99.90
13389;DHT22;6764;53.250;10.410;2023-07-02T01:28:34;16.10;99.90
13389;DHT22;6764;53.250;10.410;2023-07-02T01:31:00;16.10;99.90
13389;DHT22;6764;53.250;10.410;2023-07-02T01:33:26;16.10;99.90
13389;DHT22;6764;53.250;10.410;2023-07-02T01:35:52;16.10;99.90
13389;DHT22;6764;53.250;10.410;2023-07-02T01:38:17;16.00;99.90
13389;DHT22;6764;53.250;10.410;2023-07-02T01:40:43;16.00;99.90
13389;DHT22;6764;53.250;10.410;2023-07-02T01:43:08;15.90;99.90
13389;DHT22;6764;53.250;10.410;2023-07-02T01:45:34;15.90;99.90
13389;DHT22;6764;53.250;10.410;2023-07-02T01:47:59;15.90;99.90
13389;DHT22;6764;53.250;10.410;2023-07-02T01:50:25;15.80;99.90
13389;DHT22;6764;53.250;10.410;2023-07-02T01:52:51;15.90;99.90
13389;DHT22;6764;53.250;10.410;2023-07-02T01:55:16;15.90;99.90
13389;DHT22;6764;53.250;10.410;2023-07-02T01:57:43;15.90;99.90
13389;DHT22;6764;53.250;10.410;2023-07-02T02:00:09;15.90;99.90
13389;DHT22;6764;53.250;10.410;2023-07-02T02:02:35;15.90;99.90
13389;DHT22;6764;53.250;10.410;2023-07-02T02:05:00;15.90;99.90
13389;DHT22;6764;53.250;10.410;2023-07-02T02:07:26;15.90;99.90
13389;DHT22;6764;53.250;10.410;2023-07-02T02:09:52;15.90;99.90
13389;DHT22;6764;53.250;10.410;2023-07-02T02:12:17;15.90;99.90
13389;DHT22;6764;53.250;10.410;2023-07-02T02:14:43;15.90;99.90
13389;DHT22;6764;53.250;10.410;2023-07-02T02:17:09;15.90;99.90
13389;DHT22;6764;53.250;10.410;2023-07-02T02:19:34;16.00;99.90
13389;DHT22;6764;53.250;10.410;2023-07-02T02:22:00;16.00;99.90
13389;DHT22;6764;53.250;10.410;2023-07-02T02:24:25;16.00;99.90
13389;DHT22;6764;53.250;10.410;2023-07-02T02:26:51;16.10;99.90
13389;DHT22;6764;53.250;10.410;2023-07-02T02:29:17;16.10;99.90
13389;DHT22;6764;53.250;10.410;2023-07-02T02:31:44;16.20;99.90
13389;DHT22;6764;53.250;10.410;2023-07-02T02:34:09;16.20;99.90
13389;DHT22;6764;53.250;10.410;2023-07-02T02:36:35;16.20;99.90
13389;DHT22;6764;53.250;10.410;2023-07-02T02:39:00;16.20;99.90
13389;DHT22;6764;53.250;10.410;2023-07-02T02:41:26;16.20;99.90
13389;DHT22;6764;53.250;10.410;2023-07-02T02:43:52;16.20;99.90
13389;DHT22;6764;53.250;10.410;2023-07-02T02:46:21;16.20;99.90
13389;DHT22;6764;53.250;10.410;2023-07-02T02:48:50;16.20;99.90
13389;DHT22;6764;53.250;10.410;2023-07-02T02:51:17;16.10;99.90
13389;DHT22;6764;53.250;10.410;2023-07-02T02:53:42;16.10;99.90
13389;DHT22;6764;53.250;10.410;2023-07-02T02:56:08;16.10;99.90
13389;DHT22;6764;53.250;10.410;2023-07-02T02:58:33;16.10;99.90
13389;DHT22;6764;53.250;10.410;2023-07-02T03:00:59;16.10;99.90
13389;DHT22;6764;53.250;10.410;2023-07-02T03:03:24;16.20;99.90
13389;DHT22;6764;53.250;10.410;2023-07-02T03:05:50;16.10;99.90
13389;DHT22;6764;53.250;10.410;2023-07-02T03:08:16;16.20;99.90
13389;DHT22;6764;53.250;10.410;2023-07-02T03:10:42;16.20;99.90
13389;DHT22;6764;53.250;10.410;2023-07-02T03:13:08;16.20;99.90
13389;DHT22;6764;53.250;10.410;2023-07-02T03:15:33;16.20;99.90
13389;DHT22;6764;53.250;10.410;2023-07-02T03:17:59;16.20;99.90
13389;DHT22;6764;53.250;10.410;2023-07-02T03:20:24;16.20;99.90
13389;DHT22;6764;53.250;10.410;2023-07-02T03:22:50;16.20;99.90
13389;DHT22;6764;53.250;10.410;2023-07-02T03:25:16;16.20;99.90
13389;DHT22;6764;53.250;10.410;2023-07-02T03:27:41;16.20;99.90
13389;DHT22;6764;53.250;10.410;2023-07-02T03:30:07;16.20;99.90
13389;DHT22;6764;53.250;10.410;2023-07-02T03:32:33;16.20;99.90
13389;DHT22;6764;53.250;10.410;2023-07-02T03:34:59;16.30;99.90
13389;DHT22;6764;53.250;10.410;2023-07-02T03:37:24;16.30;99.90
13389;DHT22;6764;53.250;10.410;2023-07-02T03:39:50;16.20;99.90
13389;DHT22;6764;53.250;10.410;2023-07-02T03:42:16;16.20;99.90
13389;DHT22;6764;53.250;10.410;2023-07-02T03:44:41;16.30;99.90
13389;DHT22;6764;53.250;10.410;2023-07-02T03:47:07;16.20;99.90
13389;DHT22;6764;53.250;10.410;2023-07-02T03:49:34;16.10;99.90
13389;DHT22;6764;53.250;10.410;2023-07-02T03:51:59;16.10;99.90
13389;DHT22;6764;53.250;10.410;2023-07-02T03:54:25;16.10;99.90
13389;DHT22;6764;53.250;10.410;2023-07-02T03:56:50;16.10;99.90
13389;DHT22;6764;53.250;10.410;2023-07-02T03:59:16;16.10;99.90
13389;DHT22;6764;53.250;10.410;2023-07-02T04:01:41;16.20;99.90
13389;DHT22;6764;53.250;10.410;2023-07-02T04:04:08;16.20;99.90
13389;DHT22;6764;53.250;10.410;2023-07-02T04:06:34;16.20;99.90
13389;DHT22;6764;53.250;10.410;2023-07-02T04:09:00;16.30;99.90
13389;DHT22;6764;53.250;10.410;2023-07-02T04:11:26;16.30;99.90
13389;DHT22;6764;53.250;10.410;2023-07-02T04:13:51;16.30;99.90
13389;DHT22;6764;53.250;10.410;2023-07-02T04:16:17;16.40;99.90
13389;DHT22;6764;53.250;10.410;2023-07-02T04:18:43;16.40;99.90
13389;DHT22;6764;53.250;10.410;2023-07-02T04:21:08;16.40;99.90
13389;DHT22;6764;53.250;10.410;2023-07-02T04:23:34;16.40;99.90
13389;DHT22;6764;53.250;10.410;2023-07-02T04:26:00;16.50;99.90
13389;DHT22;6764;53.250;10.410;2023-07-02T04:28:25;16.40;99.90
13389;DHT22;6764;53.250;10.410;2023-07-02T04:30:51;16.50;99.90
13389;DHT22;6764;53.250;10.410;2023-07-02T04:33:18;16.60;99.90
13389;DHT22;6764;53.250;10.410;2023-07-02T04:35:44;16.60;99.90
13389;DHT22;6764;53.250;10.410;2023-07-02T04:38:10;16.60;99.90
13389;DHT22;6764;53.250;10.410;2023-07-02T04:40:35;16.60;99.90
13389;DHT22;6764;53.250;10.410;2023-07-02T04:43:01;16.70;99.90
13389;DHT22;6764;53.250;10.410;2023-07-02T04:45:29;16.70;99.90
13389;DHT22;6764;53.250;10.410;2023-07-02T04:47:57;16.70;99.90
13389;DHT22;6764;53.250;10.410;2023-07-02T04:50:23;16.70;99.90
13389;DHT22;6764;53.250;10.410;2023-07-02T04:52:49;16.80;99.90
13389;DHT22;6764;53.250;10.410;2023-07-02T04:55:14;16.70;99.90
13389;DHT22;6764;53.250;10.410;2023-07-02T04:57:40;16.70;99.90
13389;DHT22;6764;53.250;10.410;2023-07-02T05:00:06;16.80;99.90
13389;DHT22;6764;53.250;10.410;2023-07-02T05:02:33;16.80;99.90
13389;DHT22;6764;53.250;10.410;2023-07-02T05:04:59;16.90;99.90
13389;DHT22;6764;53.250;10.410;2023-07-02T05:07:24;17.00;99.90
13389;DHT22;6764;53.250;10.410;2023-07-02T05:09:50;17.00;99.90
13389;DHT22;6764;53.250;10.410;2023-07-02T05:12:18;16.90;99.90
13389;DHT22;6764;53.250;10.410;2023-07-02T05:14:43;16.90;99.90
13389;DHT22;6764;53.250;10.410;2023-07-02T05:17:09;16.90;99.90
13389;DHT22;6764;53.250;10.410;2023-07-02T05:19:34;17.00;99.90
13389;DHT22;6764;53.250;10.410;2023-07-02T05:22:00;17.20;99.90
13389;DHT22;6764;53.250;10.410;2023-07-02T05:24:26;17.20;99.90
13389;DHT22;6764;53.250;10.410;2023-07-02T05:26:51;17.00;99.90
13389;DHT22;6764;53.250;10.410;2023-07-02T05:29:17;17.00;99.90
13389;DHT22;6764;53.250;10.410;2023-07-02T05:31:42;17.10;99.90
13389;DHT22;6764;53.250;10.410;2023-07-02T05:34:08;17.10;99.90
13389;DHT22;6764;53.250;10.410;2023-07-02T05:36:34;17.10;99.90
13389;DHT22;6764;53.250;10.410;2023-07-02T05:39:00;17.00;99.90
13389;DHT22;6764;53.250;10.410;2023-07-02T05:41:25;17.10;99.90
13389;DHT22;6764;53.250;10.410;2023-07-02T05:43:59;17.10;99.90
13389;DHT22;6764;53.250;10.410;2023-07-02T05:46:25;17.20;99.90
13389;DHT22;6764;53.250;10.410;2023-07-02T05:48:50;17.20;99.90
13389;DHT22;6764;53.250;10.410;2023-07-02T05:51:25;17.30;99.90
13389;DHT22;6764;53.250;10.410;2023-07-02T05:53:51;17.30;99.90
13389;DHT22;6764;53.250;10.410;2023-07-02T05:56:18;17.40;99.90
13389;DHT22;6764;53.250;10.410;2023-07-02T05:58:45;17.40;99.90
13389;DHT22;6764;53.250;10.410;2023-07-02T06:01:11;17.40;99.90
13389;DHT22;6764;53.250;10.410;2023-07-02T06:03:36;17.50;99.90
13389;DHT22;6764;53.250;10.410;2023-07-02T06:06:03;17.40;99.90
13389;DHT22;6764;53.250;10.410;2023-07-02T06:08:28;17.50;99.90
13389;DHT22;6764;53.250;10.410;2023-07-02T06:10:54;17.60;99.90
13389;DHT22;6764;53.250;10.410;2023-07-02T06:13:19;17.60;99.90
13389;DHT22;6764;53.250;10.410;2023-07-02T06:15:45;17.70;99.90
13389;DHT22;6764;53.250;10.410;2023-07-02T06:18:12;17.80;99.90
13389;DHT22;6764;53.250;10.410;2023-07-02T06:20:38;17.80;99.90
13389;DHT22;6764;53.250;10.410;2023-07-02T06:23:03;17.80;99.90
13389;DHT22;6764;53.250;10.410;2023-07-02T06:25:29;17.90;99.90
13389;DHT22;6764;53.250;10.410;2023-07-02T06:27:55;18.00;99.90
13389;DHT22;6764;53.250;10.410;2023-07-02T06:30:24;18.10;99.90
13389;DHT22;6764;53.250;10.410;2023-07-02T06:32:49;18.20;99.90
13389;DHT22;6764;53.250;10.410;2023-07-02T06:35:15;18.70;99.90
13389;DHT22;6764;53.250;10.410;2023-07-02T06:37:41;19.70;99.90
13389;DHT22;6764;53.250;10.410;2023-07-02T06:40:07;20.60;99.90
13389;DHT22;6764;53.250;10.410;2023-07-02T06:42:32;21.70;99.90
13389;DHT22;6764;53.250;10.410;2023-07-02T06:44:58;22.50;99.90
13389;DHT22;6764;53.250;10.410;2023-07-02T06:47:24;23.20;99.90
13389;DHT22;6764;53.250;10.410;2023-07-02T06:49:52;23.80;99.90
13389;DHT22;6764;53.250;10.410;2023-07-02T06:52:18;24.10;99.90
13389;DHT22;6764;53.250;10.410;2023-07-02T06:54:43;24.10;99.90
13389;DHT22;6764;53.250;10.410;2023-07-02T06:57:09;24.40;99.90
13389;DHT22;6764;53.250;10.410;2023-07-02T06:59:34;24.20;99.90
13389;DHT22;6764;53.250;10.410;2023-07-02T07:02:01;24.70;99.90
13389;DHT22;6764;53.250;10.410;2023-07-02T07:04:26;25.70;98.50
13389;DHT22;6764;53.250;10.410;2023-07-02T07:06:53;25.90;97.50
13389;DHT22;6764;53.250;10.410;2023-07-02T07:09:21;25.90;96.90
13389;DHT22;6764;53.250;10.410;2023-07-02T07:11:46;26.60;96.00
13389;DHT22;6764;53.250;10.410;2023-07-02T07:14:12;26.80;94.90
13389;DHT22;6764;53.250;10.410;2023-07-02T07:16:38;27.00;94.50
13389;DHT22;6764;53.250;10.410;2023-07-02T07:19:04;27.80;93.70
13389;DHT22;6764;53.250;10.410;2023-07-02T07:21:29;27.90;91.60
13389;DHT22;6764;53.250;10.410;2023-07-02T07:23:55;27.30;91.20
13389;DHT22;6764;53.250;10.410;2023-07-02T07:26:21;26.40;92.30
13389;DHT22;6764;53.250;10.410;2023-07-02T07:28:46;26.80;92.20
13389;DHT22;6764;53.250;10.410;2023-07-02T07:31:12;27.80;91.20
13389;DHT22;6764;53.250;10.410;2023-07-02T07:33:38;27.10;90.40
13389;DHT22;6764;53.250;10.410;2023-07-02T07:36:04;26.90;90.50
13389;DHT22;6764;53.250;10.410;2023-07-02T07:38:29;27.20;90.40
13389;DHT22;6764;53.250;10.410;2023-07-02T07:40:55;27.50;89.80
13389;DHT22;6764;53.250;10.410;2023-07-02T07:43:21;27.00;90.10
13389;DHT22;6764;53.250;10.410;2023-07-02T07:45:46;26.90;89.00
13389;DHT22;6764;53.250;10.410;2023-07-02T07:48:12;28.10;88.10
13389;DHT22;6764;53.250;10.410;2023-07-02T07:50:38;28.30;83.40
13389;DHT22;6764;53.250;10.410;2023-07-02T07:53:03;27.40;84.40
13389;DHT22;6764;53.250;10.410;2023-07-02T07:55:29;28.20;84.00
13389;DHT22;6764;53.250;10.410;2023-07-02T07:57:55;29.50;82.10
13389;DHT22;6764;53.250;10.410;2023-07-02T08:00:20;29.30;79.20
13389;DHT22;6764;53.250;10.410;2023-07-02T08:02:46;28.50;80.30
13389;DHT22;6764;53.250;10.410;2023-07-02T08:05:12;27.80;82.10
13389;DHT22;6764;53.250;10.410;2023-07-02T08:07:39;27.90;83.10
13389;DHT22;6764;53.250;10.410;2023-07-02T08:10:06;26.70;84.50
13389;DHT22;6764;53.250;10.410;2023-07-02T08:12:33;25.20;87.30
13389;DHT22;6764;53.250;10.410;2023-07-02T08:14:59;24.30;90.60
13389;DHT22;6764;53.250;10.410;2023-07-02T08:17:24;24.10;91.30
13389;DHT22;6764;53.250;10.410;2023-07-02T08:19:50;23.70;91.40
13389;DHT22;6764;53.250;10.410;2023-07-02T08:22:16;23.40;91.90
13389;DHT22;6764;53.250;10.410;2023-07-02T08:24:41;23.50;92.60
13389;DHT22;6764;53.250;10.410;2023-07-02T08:27:08;23.20;92.50
13389;DHT22;6764;53.250;10.410;2023-07-02T08:29:34;23.20;92.80
13389;DHT22;6764;53.250;10.410;2023-07-02T08:31:59;23.90;91.80
13389;DHT22;6764;53.250;10.410;2023-07-02T08:34:25;24.60;89.90
13389;DHT22;6764;53.250;10.410;2023-07-02T08:36:50;25.70;86.00
13389;DHT22;6764;53.250;10.410;2023-07-02T08:39:17;26.00;84.20
13389;DHT22;6764;53.250;10.410;2023-07-02T08:41:46;26.00;84.90
13389;DHT22;6764;53.250;10.410;2023-07-02T08:44:13;26.40;85.60
13389;DHT22;6764;53.250;10.410;2023-07-02T08:46:42;27.00;82.80
13389;DHT22;6764;53.250;10.410;2023-07-02T08:49:08;26.50;81.50
13389;DHT22;6764;53.250;10.410;2023-07-02T08:51:34;26.10;82.50
13389;DHT22;6764;53.250;10.410;2023-07-02T08:54:01;26.70;80.20
13389;DHT22;6764;53.250;10.410;2023-07-02T08:56:26;27.40;76.50
13389;DHT22;6764;53.250;10.410;2023-07-02T08:58:52;27.70;75.00
13389;DHT22;6764;53.250;10.410;2023-07-02T09:01:18;28.20;74.30
13389;DHT22;6764;53.250;10.410;2023-07-02T09:03:44;28.30;73.00
13389;DHT22;6764;53.250;10.410;2023-07-02T09:06:11;28.00;73.30
13389;DHT22;6764;53.250;10.410;2023-07-02T09:08:37;28.00;73.20
13389;DHT22;6764;53.250;10.410;2023-07-02T09:11:16;28.30;72.80
13389;DHT22;6764;53.250;10.410;2023-07-02T09:16:30;27.50;71.90
13389;DHT22;6764;53.250;10.410;2023-07-02T09:21:25;28.30;71.70
13389;DHT22;6764;53.250;10.410;2023-07-02T09:23:50;28.20;71.30
13389;DHT22;6764;53.250;10.410;2023-07-02T09:26:23;28.80;72.60
13389;DHT22;6764;53.250;10.410;2023-07-02T09:28:48;29.60;71.00
13389;DHT22;6764;53.250;10.410;2023-07-02T09:31:14;29.10;70.70
13389;DHT22;6764;53.250;10.410;2023-07-02T09:33:40;28.60;70.80
13389;DHT22;6764;53.250;10.410;2023-07-02T09:36:05;29.10;71.40
13389;DHT22;6764;53.250;10.410;2023-07-02T09:38:31;29.10;71.50
13389;DHT22;6764;53.250;10.410;2023-07-02T09:40:57;29.20;71.40
13389;DHT22;6764;53.250;10.410;2023-07-02T09:43:24;29.30;68.00
13389;DHT22;6764;53.250;10.410;2023-07-02T09:45:54;28.70;68.90
13389;DHT22;6764;53.250;10.410;2023-07-02T09:48:24;28.40;71.40
13389;DHT22;6764;53.250;10.410;2023-07-02T09:50:51;28.50;69.70
13389;DHT22;6764;53.250;10.410;2023-07-02T09:53:17;28.30;71.10
13389;DHT22;6764;53.250;10.410;2023-07-02T09:55:43;28.60;70.80
13389;DHT22;6764;53.250;10.410;2023-07-02T09:58:09;28.10;70.70
13389;DHT22;6764;53.250;10.410;2023-07-02T10:00:35;26.80;72.80
13389;DHT22;6764;53.250;10.410;2023-07-02T10:03:01;26.10;75.40
13389;DHT22;6764;53.250;10.410;2023-07-02T10:07:52;24.90;76.90
13389;DHT22;6764;53.250;10.410;2023-07-02T10:10:29;24.10;77.40
13389;DHT22;6764;53.250;10.410;2023-07-02T10:12:55;23.70;79.80
13389;DHT22;6764;53.250;10.410;2023-07-02T10:15:27;24.60;79.30
13389;DHT22;6764;53.250;10.410;2023-07-02T10:17:58;25.50;78.00
13389;DHT22;6764;53.250;10.410;2023-07-02T10:20:40;26.50;75.20
13389;DHT22;6764;53.250;10.410;2023-07-02T10:23:08;27.10;72.80
13389;DHT22;6764;53.250;10.410;2023-07-02T10:25:38;26.90;71.60
13389;DHT22;6764;53.250;10.410;2023-07-02T10:28:20;26.80;70.70
13389;DHT22;6764;53.250;10.410;2023-07-02T10:30:48;27.10;70.70
13389;DHT22;6764;53.250;10.410;2023-07-02T10:33:15;27.40;70.50
13389;DHT22;6764;53.250;10.410;2023-07-02T10:35:45;27.00;71.40
13389;DHT22;6764;53.250;10.410;2023-07-02T10:38:23;26.80;70.50
13389;DHT22;6764;53.250;10.410;2023-07-02T10:40:56;26.60;70.40
13389;DHT22;6764;53.250;10.410;2023-07-02T10:43:29;26.30;71.40
13389;DHT22;6764;53.250;10.410;2023-07-02T10:45:55;25.80;71.80
13389;DHT22;6764;53.250;10.410;2023-07-02T10:48:21;26.10;72.20
13389;DHT22;6764;53.250;10.410;2023-07-02T10:50:47;26.50;70.70
13389;DHT22;6764;53.250;10.410;2023-07-02T10:53:17;26.40;70.60
13389;DHT22;6764;53.250;10.410;2023-07-02T10:55:43;25.80;70.70
13389;DHT22;6764;53.250;10.410;2023-07-02T10:58:10;25.50;71.90
13389;DHT22;6764;53.250;10.410;2023-07-02T11:00:46;25.40;73.20
13389;DHT22;6764;53.250;10.410;2023-07-02T11:03:18;25.20;74.30
13389;DHT22;6764;53.250;10.410;2023-07-02T11:05:45;24.80;75.60
13389;DHT22;6764;53.250;10.410;2023-07-02T11:08:11;24.40;76.30
13389;DHT22;6764;53.250;10.410;2023-07-02T11:10:37;24.10;77.10
13389;DHT22;6764;53.250;10.410;2023-07-02T11:13:13;23.60;78.40
13389;DHT22;6764;53.250;10.410;2023-07-02T11:15:38;23.50;80.10
13389;DHT22;6764;53.250;10.410;2023-07-02T11:18:11;23.00;80.10
13389;DHT22;6764;53.250;10.410;2023-07-02T11:20:36;22.80;81.50
13389;DHT22;6764;53.250;10.410;2023-07-02T11:23:02;23.30;81.40
13389;DHT22;6764;53.250;10.410;2023-07-02T11:25:28;23.40;80.50
13389;DHT22;6764;53.250;10.410;2023-07-02T11:28:06;23.60;79.50
13389;DHT22;6764;53.250;10.410;2023-07-02T11:30:33;23.80;78.60
13389;DHT22;6764;53.250;10.410;2023-07-02T11:33:00;23.80;77.90
13389;DHT22;6764;53.250;10.410;2023-07-02T11:35:35;23.90;79.00
13389;DHT22;6764;53.250;10.410;2023-07-02T11:38:01;24.20;78.80
13389;DHT22;6764;53.250;10.410;2023-07-02T11:40:27;24.20;78.00
13389;DHT22;6764;53.250;10.410;2023-07-02T11:42:52;24.20;78.60
13389;DHT22;6764;53.250;10.410;2023-07-02T11:45:18;24.30;78.40
13389;DHT22;6764;53.250;10.410;2023-07-02T11:47:44;24.20;78.90
13389;DHT22;6764;53.250;10.410;2023-07-02T11:50:10;24.10;78.30
13389;DHT22;6764;53.250;10.410;2023-07-02T11:52:36;24.10;78.60
13389;DHT22;6764;53.250;10.410;2023-07-02T11:55:01;24.20;79.30
13389;DHT22;6764;53.250;10.410;2023-07-02T11:57:27;24.40;77.70
13389;DHT22;6764;53.250;10.410;2023-07-02T11:59:53;24.30;77.40
13389;DHT22;6764;53.250;10.410;2023-07-02T12:02:18;24.20;77.10
13389;DHT22;6764;53.250;10.410;2023-07-02T12:04:44;24.30;76.30
13389;DHT22;6764;53.250;10.410;2023-07-02T12:07:10;24.00;75.00
13389;DHT22;6764;53.250;10.410;2023-07-02T12:09:36;24.20;73.90
13389;DHT22;6764;53.250;10.410;2023-07-02T12:12:02;24.40;73.60
13389;DHT22;6764;53.250;10.410;2023-07-02T12:14:28;23.90;72.10
13389;DHT22;6764;53.250;10.410;2023-07-02T12:16:54;23.80;73.70
13389;DHT22;6764;53.250;10.410;2023-07-02T12:19:19;23.90;75.00
13389;DHT22;6764;53.250;10.410;2023-07-02T12:21:45;23.90;75.80
13389;DHT22;6764;53.250;10.410;2023-07-02T12:24:10;23.60;76.70
13389;DHT22;6764;53.250;10.410;2023-07-02T12:26:37;23.70;77.90
13389;DHT22;6764;53.250;10.410;2023-07-02T12:29:02;23.70;78.10
13389;DHT22;6764;53.250;10.410;2023-07-02T12:31:29;23.60;78.10
13389;DHT22;6764;53.250;10.410;2023-07-02T12:33:55;23.50;78.20
13389;DHT22;6764;53.250;10.410;2023-07-02T12:36:20;23.30;78.70
13389;DHT22;6764;53.250;10.410;2023-07-02T12:38:46;23.30;78.60
13389;DHT22;6764;53.250;10.410;2023-07-02T12:41:12;23.30;79.10
13389;DHT22;6764;53.250;10.410;2023-07-02T12:43:37;23.50;78.80
13389;DHT22;6764;53.250;10.410;2023-07-02T12:46:03;23.80;77.70
13389;DHT22;6764;53.250;10.410;2023-07-02T12:48:28;23.80;77.10
13389;DHT22;6764;53.250;10.410;2023-07-02T12:50:58;23.50;76.10
13389;DHT22;6764;53.250;10.410;2023-07-02T12:53:25;23.50;75.50
13389;DHT22;6764;53.250;10.410;2023-07-02T12:55:51;23.40;75.20
13389;DHT22;6764;53.250;10.410;2023-07-02T12:58:16;23.60;74.30
13389;DHT22;6764;53.250;10.410;2023-07-02T13:00:42;23.60;75.20
13389;DHT22;6764;53.250;10.410;2023-07-02T13:03:10;23.60;75.60
13389;DHT22;6764;53.250;10.410;2023-07-02T13:05:36;23.50;75.20
13389;DHT22;6764;53.250;10.410;2023-07-02T13:08:02;23.50;75.80
13389;DHT22;6764;53.250;10.410;2023-07-02T13:10:29;23.60;75.60
13389;DHT22;6764;53.250;10.410;2023-07-02T13:12:55;23.60;75.00
13389;DHT22;6764;53.250;10.410;2023-07-02T13:15:21;23.80;75.10
13389;DHT22;6764;53.250;10.410;2023-07-02T13:17:47;23.60;75.30
13389;DHT22;6764;53.250;10.410;2023-07-02T13:20:13;23.50;75.90
13389;DHT22;6764;53.250;10.410;2023-07-02T13:22:38;23.50;76.60
13389;DHT22;6764;53.250;10.410;2023-07-02T13:25:04;23.50;76.70
13389;DHT22;6764;53.250;10.410;2023-07-02T13:27:31;23.40;78.40
13389;DHT22;6764;53.250;10.410;2023-07-02T13:29:56;23.20;79.40
13389;DHT22;6764;53.250;10.410;2023-07-02T13:32:22;22.80;80.10
13389;DHT22;6764;53.250;10.410;2023-07-02T13:34:47;22.70;80.20
13389;DHT22;6764;53.250;10.410;2023-07-02T13:37:13;22.90;79.60
13389;DHT22;6764;53.250;10.410;2023-07-02T13:39:43;23.00;79.80
13389;DHT22;6764;53.250;10.410;2023-07-02T13:42:09;23.00;78.20
13389;DHT22;6764;53.250;10.410;2023-07-02T13:44:34;23.10;77.80
13389;DHT22;6764;53.250;10.410;2023-07-02T13:47:00;23.10;77.60
13389;DHT22;6764;53.250;10.410;2023-07-02T13:49:26;23.00;75.80
13389;DHT22;6764;53.250;10.410;2023-07-02T13:51:51;23.00;76.70
13389;DHT22;6764;53.250;10.410;2023-07-02T13:54:17;23.10;77.10
13389;DHT22;6764;53.250;10.410;2023-07-02T13:56:44;23.10;77.90
13389;DHT22;6764;53.250;10.410;2023-07-02T13:59:11;23.00;78.50
13389;DHT22;6764;53.250;10.410;2023-07-02T14:01:36;23.00;75.40
13389;DHT22;6764;53.250;10.410;2023-07-02T14:04:03;23.10;74.40
13389;DHT22;6764;53.250;10.410;2023-07-02T14:06:29;23.10;73.80
13389;DHT22;6764;53.250;10.410;2023-07-02T14:08:54;23.20;73.20
13389;DHT22;6764;53.250;10.410;2023-07-02T14:11:21;23.30;73.20
13389;DHT22;6764;53.250;10.410;2023-07-02T14:13:47;23.20;73.80
13389;DHT22;6764;53.250;10.410;2023-07-02T14:16:13;23.20;74.30
13389;DHT22;6764;53.250;10.410;2023-07-02T14:18:39;23.30;74.80
13389;DHT22;6764;53.250;10.410;2023-07-02T14:21:04;23.20;74.50
13389;DHT22;6764;53.250;10.410;2023-07-02T14:23:30;23.10;75.80
13389;DHT22;6764;53.250;10.410;2023-07-02T14:25:55;23.00;76.70
13389;DHT22;6764;53.250;10.410;2023-07-02T14:28:21;23.00;77.40
13389;DHT22;6764;53.250;10.410;2023-07-02T14:30:46;23.00;77.40
13389;DHT22;6764;53.250;10.410;2023-07-02T14:33:14;23.00;77.90
13389;DHT22;6764;53.250;10.410;2023-07-02T14:35:39;23.20;78.20
13389;DHT22;6764;53.250;10.410;2023-07-02T14:38:05;23.20;78.90
13389;DHT22;6764;53.250;10.410;2023-07-02T14:40:32;23.30;78.00
13389;DHT22;6764;53.250;10.410;2023-07-02T14:42:57;23.40;77.50
13389;DHT22;6764;53.250;10.410;2023-07-02T14:45:24;23.20;77.40
13389;DHT22;6764;53.250;10.410;2023-07-02T14:47:49;23.10;78.50
13389;DHT22;6764;53.250;10.410;2023-07-02T14:50:15;23.00;79.50
13389;DHT22;6764;53.250;10.410;2023-07-02T14:52:41;23.10;79.70
13389;DHT22;6764;53.250;10.410;2023-07-02T14:55:07;23.20;80.60
13389;DHT22;6764;53.250;10.410;2023-07-02T14:57:32;23.10;80.20
13389;DHT22;6764;53.250;10.410;2023-07-02T14:59:58;23.00;80.70
13389;DHT22;6764;53.250;10.410;2023-07-02T15:02:23;23.10;80.70
13389;DHT22;6764;53.250;10.410;2023-07-02T15:04:49;23.10;79.60
13389;DHT22;6764;53.250;10.410;2023-07-02T15:07:15;22.70;78.10
13389;DHT22;6764;53.250;10.410;2023-07-02T15:09:40;22.60;77.80
13389;DHT22;6764;53.250;10.410;2023-07-02T15:12:06;22.50;78.70
13389;DHT22;6764;53.250;10.410;2023-07-02T15:14:31;22.60;79.80
13389;DHT22;6764;53.250;10.410;2023-07-02T15:16:57;22.50;79.30
13389;DHT22;6764;53.250;10.410;2023-07-02T15:19:22;22.60;79.20
13389;DHT22;6764;53.250;10.410;2023-07-02T15:21:49;22.60;79.60
13389;DHT22;6764;53.250;10.410;2023-07-02T15:24:15;22.60;80.50
13389;DHT22;6764;53.250;10.410;2023-07-02T15:26:42;22.60;80.50
13389;DHT22;6764;53.250;10.410;2023-07-02T15:29:07;22.70;80.40
13389;DHT22;6764;53.250;10.410;2023-07-02T15:31:33;22.70;81.60
13389;DHT22;6764;53.250;10.410;2023-07-02T15:34:01;22.60;81.30
13389;DHT22;6764;53.250;10.410;2023-07-02T15:36:27;22.60;82.20